Duarte Ribeiro

Chefscout - AVS
3 Dez 2028
Sonntag
Verarbeitung

Persönlichkeit

Anpassungsfähigkeit (10) Ehrgeiz (7) Kontroverse (9) Loyalität (1) Druck (17) Professionalität (9) Fairness (18) Temperament (16)

Profil

Trainerstil Demokratisch
Lizenz Kontinentale A
Entschlossenheit 11
Menschenführung 5
Motivation 9
Disziplin 5
Arbeitszufriedenheit
100%
Ermüdung
0%
Rolle Chefscout
Gehalt 43.6K p/W
Vertrag 14.03.2029

Leistung

Verhalten Gut
Trainingseffektivität
41%
Spielerentwicklung
55%
Verletzungsprävention
60%
Taktische Umsetzung
45%

Letzte Ereignisse

Nahm an einer Scouting-Besprechung teil jetzt
Nahm an einer Scouting-Besprechung teil jetzt
Empfahl ein Transferziel jetzt
Sprach sich gegen ein Transferziel aus jetzt
Empfahl ein Transferziel jetzt
Empfahl ein Transferziel 7T her
Empfahl ein Transferziel 7T her
Empfahl ein Transferziel 7T her

Aktuell beobachtet

126
Spieler Verein Status Fähigkeit Vertrauen Beobachtet Zuletzt beobachtet Letzte Stimme
Mao Hosoya Santos Aktiv 134 / 135 67% 1 01.01.2028 Befürworten
Auwalu Ali Malam Kano Pillars Aktiv 106 / 91 40% 1 30.08.2027 -
Agustín Alaniz Rentistas Aktiv 127 / 124 40% 1 30.08.2027 -
Cristian Barros Cerro Aktiv 119 / 117 40% 1 10.08.2027 -
Mees Rijks Bristol Rovers Aktiv 125 / 126 40% 1 02.08.2027 -
Vinícius Lopes Santa Clara Aktiv 116 / 131 40% 3 21.07.2027 -
Stephen Humphrys Bradford City Aktiv 108 / 107 40% 1 21.07.2027 -
Patson Daka Leicester City Aktiv 128 / 138 40% 1 12.07.2027 -
Carlton Morris Derby County Aktiv 133 / 128 40% 1 07.07.2027 -
Callum O'Hare Sheffield United Aktiv 141 / 145 40% 1 07.07.2027 -
Victor Andersson Vitoria Guimaraes Aktiv 113 / 128 58% 1 05.07.2027 -
Johannes Eggestein Orlando City Aktiv 125 / 125 68% 1 01.06.2027 Befürworten
Samuel Edozie Southampton Aktiv 138 / 121 40% 2 28.05.2027 -
Juanlu Bournemouth Aktiv 144 / 148 40% 2 28.05.2027 -
Derensili Sanches Fernandes Huddersfield Town Aktiv 119 / 113 40% 2 27.05.2027 -
Mohamed-Ali Cho Hull City Aktiv 128 / 145 40% 2 27.05.2027 -
Max Johnston Derby County Aktiv 123 / 139 40% 3 26.05.2027 -
Ali Ahmed Norwich City Aktiv 130 / 133 40% 1 26.05.2027 -
Juan Bezerra Zamalek Aktiv 122 / 111 40% 2 22.05.2027 -
Bobby Clark Derby County Aktiv 132 / 136 40% 2 22.05.2027 -
Jack Rudoni Coventry City Aktiv 138 / 127 40% 2 16.05.2027 -
Brooke Norton-Cuffy Hull City Aktiv 138 / 141 40% 1 16.05.2027 -
Finn Azaz Southampton Aktiv 135 / 132 40% 3 14.05.2027 -
Welington Southampton Aktiv 132 / 134 40% 1 14.05.2027 -
Tony Springett Cheltenham Town Aktiv 104 / 100 40% 2 13.05.2027 -
Chemsdine Talbi Sunderland Aktiv 152 / 156 40% 3 09.05.2027 -
Sam Greenwood Bristol City Aktiv 130 / 129 40% 1 05.05.2027 -
Ole Pohlmann Rio Ave Aktiv 115 / 119 40% 4 02.05.2027 -
Malik Mothersille Stockport County Aktiv 115 / 111 40% 1 02.05.2027 -
Sorriso Famalicao Aktiv 140 / 121 40% 5 30.04.2027 -
Isaiah Jones Luton Town Aktiv 129 / 122 40% 3 29.04.2027 -
Lorougnon Gohi Académico de Viseu Aktiv 110 / 124 40% 2 29.04.2027 -
Rafik Guitane Estoril Praia Aktiv 139 / 142 40% 5 27.04.2027 -
Santi García Gil Vicente Aktiv 132 / 123 40% 1 26.04.2027 -
Yanis Begraoui Estoril Praia Aktiv 129 / 128 40% 2 23.04.2027 -
Richard Koné Queens Park Rangers Aktiv 124 / 128 40% 1 22.04.2027 -
Jackson Muleka Konyaspor Aktiv 118 / 115 40% 1 22.04.2027 -
Alex Scott Bournemouth Aktiv 159 / 152 40% 3 21.04.2027 -
Alex Robertson Cardiff City Aktiv 127 / 115 40% 1 16.04.2027 -
Manu Pozo Torreense Aktiv 117 / 130 40% 3 15.04.2027 -
Jordan Holsgrove Estoril Praia Aktiv 133 / 138 40% 2 15.04.2027 -
Tyrese Campbell Sheffield United Aktiv 134 / 117 40% 4 14.04.2027 -
Habib Diarra Sunderland Aktiv 135 / 133 40% 1 11.04.2027 -
Scott Twine Bristol City Aktiv 129 / 114 40% 3 10.04.2027 -
Erick Pulga Bahia Aktiv 143 / 122 40% 1 02.04.2027 -
Dale Taylor Blackpool Aktiv 100 / 118 40% 1 30.03.2027 -
João Mendes Vitoria Guimaraes Aktiv 128 / 107 40% 1 30.03.2027 -
Kevin Fulham Aktiv 146 / 151 40% 2 27.03.2027 -
Daniel Kyerewaa Reading Aktiv 104 / 109 40% 1 26.03.2027 -
Martín Tejón Maritimo Aktiv 122 / 120 40% 1 24.03.2027 -
Marcelo Allende Mamelodi Sundowns Aktiv 140 / 123 40% 1 23.03.2027 -
Savinho Tottenham Aktiv 162 / 149 40% 3 15.03.2027 -
Bongani Zungu Ajax Cape Town Aktiv 128 / 122 40% 1 14.03.2027 -
Justo Giani Umraniyespor Aktiv 119 / 116 40% 1 13.03.2027 -
Malik Sellouki Rio Ave Aktiv 105 / 107 40% 1 12.03.2027 -
Tiago Freitas Benfica Aktiv 107 / 123 40% 1 09.03.2027 -
James Dornelly Peterborough United Aktiv 107 / 116 40% 1 09.03.2027 -
Cian Ashford Cardiff City Aktiv 119 / 110 40% 1 03.03.2027 -
Ilias Sebaoui Sint-Truiden Aktiv 135 / 139 40% 1 02.03.2027 -
Bradley Zwane SuperSport United Aktiv 122 / 106 40% 1 27.02.2027 -
Gustavo Silva Vitoria Guimaraes Aktiv 119 / 129 40% 1 20.02.2027 -
Peter Federico Gornik Zabrze Aktiv 129 / 135 40% 2 17.02.2027 -
Simo Maritimo Aktiv 108 / 119 40% 1 17.02.2027 -
Francisco França Felgueiras Aktiv 102 / 101 55% 1 25.01.2027 -
Sampson Dweh Mallorca Aktiv 133 / 134 66% 1 01.01.2027 Befürworten
Víctor Gómez Braga Aktiv 138 / 138 66% 1 01.01.2027 Befürworten
Mateus Mané Burnley Aktiv 133 / 125 40% 1 30.12.2026 -
Joseph George Aigle Royal de Moungo Aktiv 98 / 79 40% 1 29.12.2026 -
Sindre Walle Egeli Udinese Aktiv 124 / 125 40% 3 28.12.2026 -
Mathys Tel Tottenham Aktiv 141 / 141 40% 1 28.12.2026 -
Tiago Pucciarelli IF Elfsborg Aktiv 108 / 93 40% 1 27.12.2026 -
Will Lankshear Middlesbrough Aktiv 123 / 131 40% 1 26.12.2026 -
Rocco Vata Watford Aktiv 111 / 136 40% 4 24.12.2026 -
Miloš Jovičić Zabbar St. Patrick Aktiv 86 / 104 40% 2 24.12.2026 -
Lucas Lima Ceará Aktiv 105 / 111 40% 1 24.12.2026 -
Jalal Abdullai Molde Aktiv 97 / 124 40% 2 18.12.2026 -
Jordan van der Gaag Leiria Aktiv 114 / 105 40% 1 18.12.2026 -
Leo Castledine Middlesbrough Aktiv 132 / 139 40% 6 17.12.2026 -
Mikel Gogorza Brondby Aktiv 117 / 123 40% 4 14.12.2026 -
Matías Contrera Hrvatski Dragovoljac Aktiv 88 / 93 40% 2 13.12.2026 -
Nazif Inoussa Benfica Aktiv 77 / 71 67% 1 12.12.2026 Ablehnen
Ramiro Sordo Santos Laguna Aktiv 132 / 140 40% 2 10.12.2026 -
Markus Jensen Nacional Aktiv 117 / 122 40% 2 06.12.2026 -
Jocelin Ta Bi Sunderland Aktiv 116 / 126 40% 1 05.12.2026 -
George Brown Sheffield Wednesday Aktiv 93 / 95 40% 2 03.12.2026 -
Sam Amo-Ameyaw RC Strasbourg Aktiv 123 / 120 40% 1 01.12.2026 -
Dilan Neves Benfica Aktiv 64 / 71 40% 1 27.11.2026 -
Víctor Guzmán Sporting CP Aktiv 89 / 86 40% 2 24.11.2026 -
Marko Brkić NK Krka Aktiv 80 / 101 40% 1 23.11.2026 -
Alexander Lyng SonderjyskE Aktiv 126 / 138 40% 1 19.11.2026 -
Gabriel Monjes Hamrun Spartans Aktiv 82 / 81 40% 1 18.11.2026 -
Noni Madueke Arsenal Aktiv 144 / 144 40% 1 16.11.2026 -
Ousseynou Seck Randers Aktiv 97 / 111 40% 1 12.11.2026 -
Youssoufa Moukoko FC Copenhagen Aktiv 130 / 113 40% 8 10.11.2026 -
Roberto Fernández Braga Aktiv 151 / 127 40% 5 07.11.2026 Beobachten
Bogdan Petrović TSC Aktiv 109 / 111 40% 1 28.10.2026 -
Benjamin Kanurić Grodig Aktiv 98 / 121 40% 2 27.10.2026 -
Caio Wesley Fortaleza Aktiv 81 / 71 40% 1 27.10.2026 -
Juan Sierra La Equidad Aktiv 128 / 113 40% 1 23.10.2026 -
Ryan Oné Sheffield United Aktiv 97 / 129 40% 1 11.10.2026 -
Tyrhys Dolan Espanyol Aktiv 133 / 134 40% 1 08.10.2026 -
Alexis Cuello San Lorenzo Aktiv 136 / 137 40% 1 05.10.2026 -
Martín Ojeda Orlando City Aktiv 129 / 114 40% 1 05.10.2026 -
Mason Mount Manchester United Aktiv 155 / 163 40% 1 05.10.2026 -
Yankuba Minteh Brighton Aktiv 154 / 148 40% 1 30.09.2026 -
Antony Portland Timbers Aktiv 131 / 111 40% 2 29.09.2026 -
Carlos Forbs Club Brugge Aktiv 121 / 142 40% 1 29.09.2026 -
Oswin Appollis Orlando Pirates Aktiv 110 / 133 40% 1 27.09.2026 -
Ezekiel Kwame Alladoh Philadelphia Union Aktiv 122 / 100 40% 1 25.09.2026 -
Cheikh Sabaly Vancouver Whitecaps Aktiv 136 / 144 40% 1 21.09.2026 -
Camilo Martinez Cortulua Aktiv 130 / 110 40% 1 20.09.2026 -
Sorba Thomas Stoke City Aktiv 129 / 123 40% 1 20.09.2026 -
Valentín Depietri Talleres Aktiv 116 / 129 40% 1 17.09.2026 -
Elias Achouri San Diego Football Club Aktiv 126 / 110 40% 1 17.09.2026 -
Dylan Cabral Arsenal Aktiv 78 / 95 40% 1 16.09.2026 -
Alejandro Piedrahita Deportivo Pereira Aktiv 105 / 144 40% 1 16.09.2026 -
Tariq Lamptey Queens Park Rangers Aktiv 125 / 122 40% 1 15.09.2026 -
Georginio Rutter Brighton Aktiv 137 / 146 40% 2 13.09.2026 -
Soma Anzai FC Tokyo Aktiv 102 / 135 40% 1 13.09.2026 -
Matt O'Riley Brighton Aktiv 137 / 130 40% 1 11.09.2026 -
Matthew Bailey Arsenal Aktiv 85 / 79 40% 1 10.09.2026 -
Matías Fernández Independiente Rivadavia Aktiv 119 / 137 40% 1 08.09.2026 -
Juan Cruz de los Santos Nacional Aktiv 133 / 136 40% 1 07.09.2026 -
Alex Vigo Independiente Rivadavia Aktiv 125 / 117 40% 1 07.09.2026 -
Santiago Fernández Talleres Aktiv 130 / 136 40% 1 31.08.2026 -
Simphiwe Selepe Orlando Pirates Aktiv 113 / 107 40% 1 24.08.2026 -